Time;durP1;ratioP1;P1;durP2;ratioP2;P2;SDS_P1;SDS_P2;PMS_P1;PMS_P2;Temp;Humidity;BMP_temperature;BMP_pressure;BME280_temperature;BME280_humidity;BME280_pressure;Samples;Min_cycle;Max_cycle;Signal;HPM_P1;HPM_P2
2021/08/09 00:00:06;;;;;;;6.17;2.77;;;;;;;16.13;68.32;100639.98;1786117;79;21131;-74
2021/08/09 00:02:33;;;;;;;3.02;1.80;;;;;;;16.12;68.32;100636.45;1756269;80;21035;-74
2021/08/09 00:05:00;;;;;;;3.00;1.75;;;;;;;16.09;68.34;100630.14;1760787;80;20995;-74
2021/08/09 00:07:26;;;;;;;6.85;1.95;;;;;;;16.05;68.35;100637.45;1779859;79;21116;-74
2021/08/09 00:09:53;;;;;;;2.77;1.82;;;;;;;16.01;68.45;100634.33;1782558;80;20987;-74
2021/08/09 00:12:20;;;;;;;2.72;1.67;;;;;;;15.98;68.51;100635.56;1798406;79;21458;-74
2021/08/09 00:14:46;;;;;;;3.98;1.90;;;;;;;15.93;68.60;100629.97;1799832;79;21054;-74
2021/08/09 00:17:12;;;;;;;3.95;1.95;;;;;;;15.88;68.68;100634.27;1787557;79;20999;-74
2021/08/09 00:19:38;;;;;;;6.12;1.80;;;;;;;15.83;68.77;100642.12;1766389;80;20986;-74
2021/08/09 00:22:04;;;;;;;5.42;2.05;;;;;;;15.78;68.89;100641.87;1787330;79;21010;-74
2021/08/09 00:24:30;;;;;;;3.45;1.65;;;;;;;15.72;69.01;100652.08;1762708;81;21064;-74
2021/08/09 00:26:56;;;;;;;3.65;1.80;;;;;;;15.67;69.14;100642.41;1762339;81;21086;-74
2021/08/09 00:29:22;;;;;;;6.67;1.80;;;;;;;15.63;69.29;100639.29;1762652;81;20995;-74
2021/08/09 00:31:48;;;;;;;2.60;1.40;;;;;;;15.59;69.41;100650.63;1750258;79;21027;-74
2021/08/09 00:34:14;;;;;;;2.80;1.77;;;;;;;15.53;69.53;100642.01;1800525;79;21050;-74
2021/08/09 00:36:40;;;;;;;6.92;1.90;;;;;;;15.48;69.67;100642.08;1800104;79;21143;-74
2021/08/09 00:39:06;;;;;;;2.60;1.62;;;;;;;15.46;69.79;100640.59;1783262;80;20995;-74
2021/08/09 00:41:32;;;;;;;4.67;2.00;;;;;;;15.46;69.88;100651.34;1797446;79;21518;-74
2021/08/09 00:43:58;;;;;;;4.53;1.50;;;;;;;15.45;69.98;100651.84;1797284;78;20974;-74
2021/08/09 00:46:25;;;;;;;2.27;1.62;;;;;;;15.45;70.11;100656.39;1797368;79;20998;-74
2021/08/09 00:48:51;;;;;;;2.40;1.60;;;;;;;15.45;70.17;100657.73;1791018;79;21421;-74
2021/08/09 00:51:17;;;;;;;1.70;1.35;;;;;;;15.44;70.24;100660.95;1767303;80;21069;-74
2021/08/09 00:53:43;;;;;;;1.95;1.50;;;;;;;15.44;70.30;100664.98;1800445;79;21037;-74
2021/08/09 00:56:09;;;;;;;4.00;1.52;;;;;;;15.45;70.30;100665.28;1800487;79;21026;-74
2021/08/09 00:58:35;;;;;;;2.55;1.60;;;;;;;15.45;70.31;100661.25;1800771;79;20990;-74
2021/08/09 01:01:01;;;;;;;2.83;1.57;;;;;;;15.43;70.31;100667.35;1800786;79;21466;-74
2021/08/09 01:03:27;;;;;;;3.25;1.30;;;;;;;15.41;70.33;100668.04;1800754;78;21484;-74
2021/08/09 01:05:53;;;;;;;2.27;1.50;;;;;;;15.37;70.34;100666.80;1800595;79;21006;-74
2021/08/09 01:08:42;;;;;;;2.02;1.52;;;;;;;15.32;70.33;100671.91;1800763;79;21013;-74
2021/08/09 01:11:39;;;;;;;5.28;1.75;;;;;;;15.26;70.34;100682.09;1800844;79;20982;-74
2021/08/09 01:14:47;;;;;;;4.50;1.90;;;;;;;15.21;70.36;100676.96;1800844;79;21147;-74
2021/08/09 01:17:14;;;;;;;4.00;1.80;;;;;;;15.17;70.40;100679.20;1800874;79;21700;-74
2021/08/09 01:20:28;;;;;;;3.08;1.80;;;;;;;15.14;70.44;100670.70;1800741;79;21014;-74
2021/08/09 01:23:07;;;;;;;2.45;1.80;;;;;;;15.11;70.45;100671.92;1800405;79;20962;-74
2021/08/09 01:25:41;;;;;;;2.80;2.13;;;;;;;15.06;70.47;100671.66;1792722;79;21071;-74
2021/08/09 01:28:07;;;;;;;5.00;1.90;;;;;;;15.03;70.52;100685.98;1784608;80;21117;-74
2021/08/09 01:30:33;;;;;;;2.15;1.35;;;;;;;14.99;70.60;100685.53;1769260;81;21972;-74
2021/08/09 01:32:59;;;;;;;3.35;2.00;;;;;;;14.94;70.62;100692.84;1769293;81;21028;-74
2021/08/09 01:35:26;;;;;;;5.78;2.40;;;;;;;14.90;70.66;100692.06;1768952;80;21061;-74
2021/08/09 01:37:54;;;;;;;2.58;2.00;;;;;;;14.88;70.72;100696.80;1769341;81;21000;-74
2021/08/09 01:40:20;;;;;;;6.90;2.70;;;;;;;14.85;70.79;100691.79;1769159;81;21021;-74
2021/08/09 01:42:46;;;;;;;10.20;5.28;;;;;;;14.81;70.84;100699.93;1769280;81;20997;-74
2021/08/09 01:45:13;;;;;;;7.83;4.47;;;;;;;14.76;70.88;100702.34;1769201;79;20989;-74
2021/08/09 01:47:39;;;;;;;6.00;3.35;;;;;;;14.72;70.96;100705.91;1769216;79;21545;-74
2021/08/09 01:50:06;;;;;;;4.53;3.20;;;;;;;14.68;71.01;100713.18;1796925;79;20993;-74
2021/08/09 01:52:32;;;;;;;13.53;5.37;;;;;;;14.63;71.06;100710.25;1797075;79;21136;-74
2021/08/09 01:54:59;;;;;;;7.25;3.90;;;;;;;14.55;71.17;100707.66;1769151;81;20981;-74
2021/08/09 01:57:27;;;;;;;7.53;3.95;;;;;;;14.55;71.17;100707.66;1769055;81;21056;-74
2021/08/09 01:59:53;;;;;;;7.47;5.00;;;;;;;14.45;71.30;100696.73;1768629;81;20965;-74
2021/08/09 02:02:31;;;;;;;7.03;4.72;;;;;;;14.47;71.35;100708.59;1769164;81;21008;-74
2021/08/09 02:05:10;;;;;;;5.55;3.55;;;;;;;14.42;71.44;100707.84;1766502;81;21802;-74
2021/08/09 02:07:38;;;;;;;5.65;3.58;;;;;;;14.35;71.51;100707.42;1768090;81;21477;-74
2021/08/09 02:10:06;;;;;;;9.65;4.72;;;;;;;14.32;71.62;100716.62;1763123;79;21478;-74
2021/08/09 02:12:52;;;;;;;9.40;5.53;;;;;;;14.28;71.67;100718.05;1732762;81;21478;-74
2021/08/09 02:15:18;;;;;;;8.50;5.03;;;;;;;14.24;71.73;100724.80;1768901;79;21034;-74
2021/08/09 02:17:53;;;;;;;8.10;3.72;;;;;;;14.18;71.84;100726.86;1766330;81;21186;-74
2021/08/09 02:20:23;;;;;;;4.25;3.22;;;;;;;14.15;71.91;100730.41;1766005;81;21051;-74
2021/08/09 02:22:52;;;;;;;3.90;2.85;;;;;;;14.10;72.00;100735.02;1764526;81;21050;-74
2021/08/09 02:25:24;;;;;;;5.30;2.85;;;;;;;14.07;72.09;100736.73;1771161;79;20969;-74
2021/08/09 02:27:57;;;;;;;7.80;3.50;;;;;;;14.04;72.15;100743.77;1780502;80;21271;-74
2021/08/09 02:30:23;;;;;;;11.28;3.42;;;;;;;14.03;72.21;100746.16;1780508;80;21216;-74
2021/08/09 02:32:50;;;;;;;5.70;2.20;;;;;;;14.00;72.27;100752.69;1788692;80;21030;-74
2021/08/09 02:35:18;;;;;;;4.05;2.30;;;;;;;14.01;72.37;100754.87;1789041;80;21002;-74
2021/08/09 02:37:44;;;;;;;3.70;2.10;;;;;;;13.99;72.41;100748.37;1789135;80;20998;-74
2021/08/09 02:40:11;;;;;;;3.33;1.87;;;;;;;13.99;72.45;100751.55;1788482;79;20995;-74
2021/08/09 02:42:37;;;;;;;4.05;1.90;;;;;;;13.96;72.50;100759.47;1788954;80;21074;-74
2021/08/09 02:45:04;;;;;;;2.17;1.95;;;;;;;13.93;72.51;100763.83;1788925;80;21502;-74
2021/08/09 02:47:33;;;;;;;6.58;2.25;;;;;;;13.90;72.57;100760.17;1789117;80;21026;-74
2021/08/09 02:49:58;;;;;;;2.80;1.90;;;;;;;13.86;72.58;100758.06;1788297;80;20998;-74
2021/08/09 02:52:25;;;;;;;5.87;1.82;;;;;;;13.82;72.63;100767.48;1788974;80;21072;-74
2021/08/09 02:54:51;;;;;;;5.28;1.90;;;;;;;13.80;72.62;100764.97;1788947;80;21115;-74
2021/08/09 02:57:17;;;;;;;4.30;2.33;;;;;;;13.77;72.62;100769.86;1788845;80;21049;-74
2021/08/09 02:59:43;;;;;;;4.35;1.80;;;;;;;13.75;72.64;100774.58;1788915;80;21053;-74
2021/08/09 03:02:10;;;;;;;2.62;1.67;;;;;;;13.73;72.62;100781.95;1788977;80;21467;-74
2021/08/09 03:04:36;;;;;;;5.62;2.47;;;;;;;13.71;72.62;100789.35;1762094;80;21019;-74
2021/08/09 03:07:08;;;;;;;4.67;2.62;;;;;;;13.71;72.61;100792.03;1788796;80;21944;-74
2021/08/09 03:09:34;;;;;;;5.35;1.87;;;;;;;13.72;72.59;100794.52;1784800;79;20996;-74
2021/08/09 03:12:00;;;;;;;6.72;2.08;;;;;;;13.73;72.57;100801.55;1770103;81;21004;-74
2021/08/09 03:14:27;;;;;;;4.55;1.77;;;;;;;13.70;72.54;100791.20;1770983;81;21019;-74
2021/08/09 03:16:53;;;;;;;5.78;2.40;;;;;;;13.69;72.55;100794.05;1771053;81;21083;-74
2021/08/09 03:19:19;;;;;;;3.60;2.67;;;;;;;13.68;72.51;100801.78;1771021;81;21127;-74
2021/08/09 03:21:52;;;;;;;6.10;3.42;;;;;;;13.66;72.49;100809.15;1771032;81;21449;-74
2021/08/09 03:24:19;;;;;;;10.48;4.83;;;;;;;13.63;72.47;100810.85;1771000;81;21461;-74
2021/08/09 03:26:45;;;;;;;14.63;5.97;;;;;;;13.60;72.45;100808.53;1770886;81;21516;-74
2021/08/09 03:29:12;;;;;;;8.45;3.12;;;;;;;13.56;72.44;100813.42;1790049;80;20990;-74
2021/08/09 03:31:38;;;;;;;5.85;2.85;;;;;;;13.56;72.43;100809.90;1764724;80;21135;-74
2021/08/09 03:34:04;;;;;;;4.65;3.12;;;;;;;13.54;72.40;100810.60;1804448;78;20974;-74
2021/08/09 03:36:30;;;;;;;15.75;11.22;;;;;;;13.50;72.37;100814.98;1787255;80;20985;-74
2021/08/09 03:38:56;;;;;;;6.83;2.62;;;;;;;13.48;72.36;100820.17;1787353;80;21041;-73
2021/08/09 03:41:22;;;;;;;12.28;2.70;;;;;;;13.46;72.34;100816.84;1786931;79;20978;-73
2021/08/09 03:43:48;;;;;;;4.70;3.25;;;;;;;13.45;72.32;100817.84;1765921;81;21124;-74
2021/08/09 03:46:14;;;;;;;11.33;2.92;;;;;;;13.45;72.30;100811.98;1765967;79;21508;-73
2021/08/09 03:48:41;;;;;;;11.12;7.17;;;;;;;13.46;72.28;100820.86;1765684;81;20988;-73
2021/08/09 03:51:07;;;;;;;8.33;4.62;;;;;;;13.46;72.25;100819.02;1765819;80;21047;-73
2021/08/09 03:53:33;;;;;;;7.15;3.50;;;;;;;13.47;72.22;100823.34;1787371;80;20994;-74
2021/08/09 03:55:59;;;;;;;7.90;3.75;;;;;;;13.47;72.20;100825.22;1790104;80;21162;-73
2021/08/09 03:58:25;;;;;;;5.45;2.70;;;;;;;13.49;72.19;100823.19;1787339;79;21461;-73
2021/08/09 04:00:51;;;;;;;13.13;3.40;;;;;;;13.50;72.15;100824.86;1765897;81;21035;-74
2021/08/09 04:03:17;;;;;;;6.40;3.15;;;;;;;13.51;72.14;100828.69;1765851;81;21055;-73
2021/08/09 04:05:43;;;;;;;4.62;3.35;;;;;;;13.54;72.10;100836.05;1765786;81;21063;-73
2021/08/09 04:08:09;;;;;;;7.15;3.35;;;;;;;13.55;72.11;100832.34;1765891;80;21130;-73
2021/08/09 04:10:35;;;;;;;6.08;2.60;;;;;;;13.57;72.12;100836.53;1793426;78;21029;-73
2021/08/09 04:13:01;;;;;;;5.00;3.10;;;;;;;13.81;72.30;100841.70;1788714;80;21015;-74
2021/08/09 04:15:27;;;;;;;6.22;2.70;;;;;;;14.50;72.45;100833.85;1788659;80;21514;-73
2021/08/09 04:17:53;;;;;;;7.17;2.60;;;;;;;15.72;72.20;100836.28;1788658;80;21495;-74
2021/08/09 04:20:19;;;;;;;2.98;2.30;;;;;;;16.81;71.55;100836.49;1788665;80;21797;-74
2021/08/09 04:22:45;;;;;;;3.72;1.90;;;;;;;17.69;70.97;100837.42;1788564;80;20982;-74
2021/08/09 04:25:12;;;;;;;6.70;2.00;;;;;;;18.53;70.36;100832.23;1788158;80;21042;-74
2021/08/09 04:27:38;;;;;;;3.50;1.95;;;;;;;19.17;69.71;100835.77;1784999;79;21026;-74
2021/08/09 04:30:05;;;;;;;8.98;2.30;;;;;;;19.70;68.83;100840.35;1784948;80;21070;-74
2021/08/09 04:32:41;;;;;;;6.58;1.70;;;;;;;20.10;68.22;100838.18;1784985;80;21131;-74
2021/08/09 04:35:08;;;;;;;4.53;1.80;;;;;;;20.68;67.40;100841.94;1784978;80;21268;-74
2021/08/09 04:37:35;;;;;;;2.65;1.20;;;;;;;21.23;66.37;100839.52;1784675;80;21472;-74
2021/08/09 04:40:01;;;;;;;4.65;1.95;;;;;;;21.48;65.30;100838.03;1784771;80;21019;-75
2021/08/09 04:42:27;;;;;;;4.53;2.00;;;;;;;21.74;64.64;100834.91;1785028;80;20987;-74
2021/08/09 04:44:53;;;;;;;3.58;1.47;;;;;;;22.05;63.84;100831.13;1784861;80;21336;-75
2021/08/09 04:47:19;;;;;;;3.60;1.72;;;;;;;22.45;62.59;100828.52;1784754;80;21050;-75
2021/08/09 04:49:45;;;;;;;3.70;1.47;;;;;;;22.47;61.55;100833.73;1785192;80;20989;-75
2021/08/09 04:52:11;;;;;;;4.45;1.70;;;;;;;22.36;60.71;100830.78;1785040;80;21010;-75
2021/08/09 04:54:37;;;;;;;2.37;1.02;;;;;;;22.41;59.86;100833.61;1785285;80;21543;-75
2021/08/09 04:57:03;;;;;;;2.25;0.95;;;;;;;22.14;58.82;100841.94;1785237;80;21747;-75
2021/08/09 04:59:29;;;;;;;2.37;1.47;;;;;;;22.06;58.16;100838.19;1785098;80;20967;-74
2021/08/09 05:01:55;;;;;;;4.97;1.37;;;;;;;21.33;57.43;100835.73;1785324;80;21065;-75
2021/08/09 05:04:21;;;;;;;6.70;1.40;;;;;;;20.55;57.57;100837.47;1785107;80;21078;-74
2021/08/09 05:06:49;;;;;;;1.62;1.30;;;;;;;20.14;57.87;100839.41;1785125;80;21042;-74
2021/08/09 05:09:15;;;;;;;4.28;1.10;;;;;;;19.95;58.13;100843.09;1785147;80;21113;-74
2021/08/09 05:11:42;;;;;;;3.95;1.55;;;;;;;19.64;58.20;100851.22;1794228;79;21010;-74
2021/08/09 05:14:08;;;;;;;3.83;1.20;;;;;;;19.61;58.32;100852.50;1796998;79;21014;-74
2021/08/09 05:16:36;;;;;;;3.05;1.45;;;;;;;19.81;58.31;100853.70;1796777;79;21013;-74
2021/08/09 05:19:03;;;;;;;2.85;1.20;;;;;;;19.90;58.16;100857.83;1797174;79;21003;-74
2021/08/09 05:21:33;;;;;;;5.08;1.37;;;;;;;19.89;58.15;100858.86;1796852;79;21831;-74
2021/08/09 05:24:00;;;;;;;3.37;1.40;;;;;;;19.94;58.05;100859.05;1796751;79;21022;-75
2021/08/09 05:26:26;;;;;;;2.37;1.47;;;;;;;19.71;57.77;100872.31;1767102;80;21061;-75
2021/08/09 05:28:52;;;;;;;3.12;1.70;;;;;;;19.57;57.56;100859.91;1790199;80;21020;-75
2021/08/09 05:31:18;;;;;;;3.83;1.37;;;;;;;19.54;57.42;100858.99;1767753;81;21478;-75
2021/08/09 05:33:44;;;;;;;3.27;1.65;;;;;;;19.48;57.34;100862.05;1790070;80;21709;-74
2021/08/09 05:36:10;;;;;;;3.25;1.30;;;;;;;19.42;57.23;100864.28;1790251;80;20985;-74
2021/08/09 05:38:37;;;;;;;2.45;1.45;;;;;;;19.37;57.16;100862.19;1767520;81;20990;-74
2021/08/09 05:41:03;;;;;;;3.35;1.37;;;;;;;19.26;57.16;100861.50;1782599;79;20990;-74
2021/08/09 05:43:29;;;;;;;5.03;1.35;;;;;;;19.27;57.10;100865.88;1805205;78;21038;-74
2021/08/09 05:45:55;;;;;;;3.12;1.87;;;;;;;19.44;57.17;100862.17;1800104;79;21734;-74
2021/08/09 05:48:21;;;;;;;2.12;1.30;;;;;;;19.61;57.13;100870.61;1797601;79;20979;-75
2021/08/09 05:50:47;;;;;;;2.85;1.30;;;;;;;19.70;57.06;100870.67;1790935;79;20989;-74
2021/08/09 05:53:13;;;;;;;4.62;1.30;;;;;;;19.60;57.02;100869.77;1768759;81;21028;-74
2021/08/09 05:55:39;;;;;;;5.03;1.42;;;;;;;19.56;56.92;100874.50;1749421;81;21013;-74
2021/08/09 05:58:05;;;;;;;3.50;1.00;;;;;;;19.62;56.96;100868.22;1769126;79;21147;-74
2021/08/09 06:00:32;;;;;;;5.20;1.67;;;;;;;19.56;56.90;100876.69;1735930;81;21507;-74
2021/08/09 06:02:58;;;;;;;3.92;1.55;;;;;;;19.53;56.91;100875.74;1762268;81;21029;-75
2021/08/09 06:05:25;;;;;;;3.52;1.70;;;;;;;19.69;56.89;100875.77;1773969;79;21041;-74
2021/08/09 06:07:51;;;;;;;4.25;1.55;;;;;;;19.95;56.90;100879.64;1765586;80;21468;-74
2021/08/09 06:10:17;;;;;;;3.50;1.30;;;;;;;19.96;56.64;100884.02;1781642;79;21912;-75
2021/08/09 06:12:43;;;;;;;2.67;1.47;;;;;;;19.88;56.65;100887.81;1790085;80;20981;-74
2021/08/09 06:15:09;;;;;;;2.15;1.22;;;;;;;19.85;56.52;100891.48;1778718;79;21033;-74
2021/08/09 06:17:35;;;;;;;2.70;1.45;;;;;;;19.76;56.55;100891.45;1785019;80;21494;-74
2021/08/09 06:20:03;;;;;;;5.37;1.42;;;;;;;19.96;56.65;100893.48;1785280;80;21478;-74
2021/08/09 06:22:29;;;;;;;4.45;1.32;;;;;;;19.95;56.42;100889.11;1785156;80;21781;-74
2021/08/09 06:24:55;;;;;;;4.50;1.40;;;;;;;19.87;56.42;100890.23;1784988;80;21049;-74
2021/08/09 06:27:21;;;;;;;5.42;1.30;;;;;;;19.80;56.40;100893.51;1788405;80;20990;-74
2021/08/09 06:29:47;;;;;;;2.75;1.50;;;;;;;19.76;56.36;100894.98;1790052;78;21044;-74
2021/08/09 06:32:13;;;;;;;5.12;1.60;;;;;;;19.69;56.29;100898.77;1790029;80;21061;-74
2021/08/09 06:34:40;;;;;;;2.33;1.65;;;;;;;19.72;56.39;100903.75;1801475;78;21485;-74
2021/08/09 06:37:06;;;;;;;4.10;1.77;;;;;;;19.79;56.45;100904.54;1798931;78;20969;-74
2021/08/09 06:39:32;;;;;;;3.05;1.40;;;;;;;19.91;56.49;100908.22;1789987;79;21029;-74
2021/08/09 06:42:02;;;;;;;2.30;1.45;;;;;;;20.03;56.48;100911.87;1789834;80;21025;-74
2021/08/09 06:44:26;;;;;;;4.72;1.60;;;;;;;20.06;56.40;100900.59;1771963;80;21001;-74
2021/08/09 06:46:52;;;;;;;2.87;1.60;;;;;;;20.17;56.38;100905.31;1787520;80;21142;-74
2021/08/09 06:49:18;;;;;;;2.87;1.30;;;;;;;20.33;56.40;100904.81;1784565;80;21021;-74
2021/08/09 06:51:44;;;;;;;3.00;1.37;;;;;;;20.35;56.27;100914.06;1782838;80;21544;-75
2021/08/09 06:54:10;;;;;;;4.83;1.32;;;;;;;20.43;56.33;100911.08;1767671;80;21005;-74
2021/08/09 06:56:36;;;;;;;3.60;1.90;;;;;;;20.62;56.19;100917.38;1787683;80;21123;-75
2021/08/09 06:59:02;;;;;;;3.22;1.35;;;;;;;20.67;56.00;100913.45;1789258;80;20985;-74
2021/08/09 07:01:28;;;;;;;4.55;1.35;;;;;;;20.55;55.73;100913.34;1780399;80;20985;-74
2021/08/09 07:03:54;;;;;;;2.92;1.30;;;;;;;20.56;55.72;100925.02;1758866;80;21005;-75
2021/08/09 07:06:21;;;;;;;1.80;1.15;;;;;;;20.68;55.63;100928.16;1760961;80;21557;-74
2021/08/09 07:08:49;;;;;;;5.10;1.27;;;;;;;20.83;55.55;100923.71;1782056;80;21049;-75
2021/08/09 07:11:15;;;;;;;6.10;2.00;;;;;;;20.98;55.46;100925.55;1791273;78;21059;-74
2021/08/09 07:13:41;;;;;;;3.72;1.30;;;;;;;21.20;55.50;100921.89;1782863;78;21018;-74
2021/08/09 07:16:07;;;;;;;2.40;1.30;;;;;;;21.30;55.21;100923.02;1795089;79;21532;-75
2021/08/09 07:18:33;;;;;;;3.77;1.47;;;;;;;21.29;55.10;100921.35;1776049;80;20987;-75
2021/08/09 07:21:00;;;;;;;3.17;1.52;;;;;;;21.33;55.11;100922.56;1778019;79;21816;-75
2021/08/09 07:23:26;;;;;;;3.40;1.42;;;;;;;21.50;54.97;100921.95;1781941;80;22015;-75
2021/08/09 07:25:52;;;;;;;2.52;1.45;;;;;;;21.51;54.79;100914.92;1785895;79;21017;-74
2021/08/09 07:28:18;;;;;;;5.65;1.20;;;;;;;21.50;54.67;100919.24;1787689;79;21002;-74
2021/08/09 07:30:44;;;;;;;3.47;1.27;;;;;;;21.50;54.47;100916.53;1787525;78;21057;-74
2021/08/09 07:33:10;;;;;;;3.85;1.20;;;;;;;21.61;54.56;100919.80;1773597;80;21065;-74
2021/08/09 07:35:37;;;;;;;3.75;1.22;;;;;;;21.66;54.40;100918.07;1772511;80;21565;-74
2021/08/09 07:38:03;;;;;;;2.85;1.12;;;;;;;21.78;54.29;100923.52;1786589;77;20978;-74
2021/08/09 07:40:30;;;;;;;2.35;1.45;;;;;;;21.69;54.02;100922.20;1772681;79;21013;-74
2021/08/09 07:42:56;;;;;;;2.67;1.20;;;;;;;21.82;53.92;100911.15;1775029;79;21467;-74
2021/08/09 07:45:23;;;;;;;2.42;1.20;;;;;;;22.00;53.85;100915.72;1784664;80;20990;-74
2021/08/09 07:47:52;;;;;;;1.35;1.00;;;;;;;22.26;53.72;100912.08;1797995;78;21461;-75
2021/08/09 07:50:19;;;;;;;2.87;1.07;;;;;;;22.28;53.42;100915.37;1796265;79;20986;-75
2021/08/09 07:52:46;;;;;;;1.77;0.90;;;;;;;22.19;53.16;100923.59;1796976;78;21534;-75
2021/08/09 07:55:12;;;;;;;3.50;1.45;;;;;;;22.08;52.94;100918.12;1820653;78;21176;-75
2021/08/09 07:57:38;;;;;;;3.42;1.30;;;;;;;22.17;52.95;100910.74;1820490;78;20982;-74
2021/08/09 08:00:05;;;;;;;3.22;1.50;;;;;;;22.17;52.78;100917.53;1806653;78;21585;-74
2021/08/09 08:02:31;;;;;;;6.92;1.42;;;;;;;22.34;52.81;100918.51;1785281;80;21025;-75
2021/08/09 08:04:57;;;;;;;2.80;1.55;;;;;;;22.60;52.77;100917.77;1771125;80;21081;-74
2021/08/09 08:07:23;;;;;;;4.45;1.30;;;;;;;22.76;52.67;100919.27;1783545;80;21393;-75
2021/08/09 08:09:49;;;;;;;6.30;1.85;;;;;;;22.98;52.52;100924.94;1778178;78;21022;-74
2021/08/09 08:12:16;;;;;;;4.62;1.40;;;;;;;23.16;52.24;100927.52;1772061;80;21785;-74
2021/08/09 08:14:42;;;;;;;3.10;1.20;;;;;;;23.30;52.01;100924.82;1792392;78;21077;-74
2021/08/09 08:17:08;;;;;;;3.12;1.07;;;;;;;23.35;51.83;100918.14;1793402;78;21021;-74
2021/08/09 08:19:34;;;;;;;4.25;1.67;;;;;;;23.21;51.68;100918.11;1792273;79;21470;-74
2021/08/09 08:22:00;;;;;;;5.58;1.30;;;;;;;23.07;51.46;100919.44;1789037;79;21511;-74
2021/08/09 08:24:27;;;;;;;1.90;1.20;;;;;;;23.01;51.47;100917.66;1781382;80;22494;-74
2021/08/09 08:26:54;;;;;;;3.55;1.50;;;;;;;22.91;51.39;100917.44;1770041;80;21542;-75
2021/08/09 08:29:20;;;;;;;3.17;1.45;;;;;;;22.97;51.20;100915.67;1778250;78;21073;-74
2021/08/09 08:31:46;;;;;;;2.77;1.40;;;;;;;22.98;50.98;100918.66;1764860;78;21022;-74
2021/08/09 08:34:12;;;;;;;1.67;1.10;;;;;;;23.03;50.88;100921.51;1764859;81;21025;-75
2021/08/09 08:36:39;;;;;;;2.37;1.35;;;;;;;22.97;50.70;100921.95;1796353;79;21827;-75
2021/08/09 08:39:06;;;;;;;3.17;1.35;;;;;;;22.83;50.49;100915.09;1795182;79;20979;-75
2021/08/09 08:41:32;;;;;;;6.12;1.67;;;;;;;22.61;50.30;100911.28;1785498;79;21759;-73
2021/08/09 08:43:58;;;;;;;4.30;1.60;;;;;;;22.62;50.30;100918.37;1753054;81;21046;-73
2021/08/09 08:46:25;;;;;;;2.80;1.37;;;;;;;22.59;50.16;100917.50;1781142;78;21053;-73
2021/08/09 08:48:51;;;;;;;3.08;1.20;;;;;;;22.62;50.23;100927.37;1784085;80;21669;-73
2021/08/09 08:51:23;;;;;;;2.67;1.20;;;;;;;22.58;50.08;100928.06;1774762;80;21010;-73
2021/08/09 08:53:49;;;;;;;5.80;2.17;;;;;;;22.67;50.08;100931.58;1780152;78;21022;-73
2021/08/09 08:56:15;;;;;;;4.83;1.57;;;;;;;22.84;50.03;100926.25;1771681;80;21531;-74
2021/08/09 08:58:41;;;;;;;10.80;3.12;;;;;;;23.01;49.84;100925.81;1801360;78;20990;-74
2021/08/09 09:01:07;;;;;;;2.33;1.20;;;;;;;23.05;49.73;100924.80;1798979;77;21823;-74
2021/08/09 09:03:39;;;;;;;4.30;1.60;;;;;;;23.11;49.63;100917.90;1790852;79;21440;-74
2021/08/09 09:06:07;;;;;;;3.15;1.35;;;;;;;23.11;49.46;100926.06;1787377;78;21403;-76
2021/08/09 09:08:46;;;;;;;3.50;1.50;;;;;;;23.20;49.43;100919.17;1781443;80;20997;-76
2021/08/09 09:11:26;;;;;;;2.08;1.27;;;;;;;23.21;49.21;100920.84;1775384;78;27141;-77
2021/08/09 09:14:02;;;;;;;;;;;;;;;23.21;49.25;100924.92;1785291;79;21742;-74
2021/08/09 09:16:46;;;;;;;2.00;1.10;;;;;;;23.32;49.23;100921.34;1790359;79;20706;-75
2021/08/09 09:19:32;;;;;;;2.70;1.00;;;;;;;23.27;49.03;100914.42;1744845;79;21013;-71
2021/08/09 09:21:58;;;;;;;6.65;1.85;;;;;;;23.06;48.63;100919.14;1773971;79;21430;-75
2021/08/09 09:24:25;;;;;;;2.58;1.52;;;;;;;23.11;48.50;100917.90;1803196;78;21080;-75
2021/08/09 09:27:09;;;;;;;2.75;1.30;;;;;;;23.32;48.42;100929.52;1788042;79;22602;-75
2021/08/09 09:29:37;;;;;;;3.95;1.37;;;;;;;23.58;48.15;100920.50;1750713;80;21039;-77
2021/08/09 09:32:21;;;;;;;3.15;1.17;;;;;;;23.56;47.69;100929.46;1799430;79;21038;-78
2021/08/09 09:34:56;;;;;;;3.05;1.10;;;;;;;23.37;47.32;100932.32;1795222;78;21089;-75
2021/08/09 09:37:36;;;;;;;2.72;1.20;;;;;;;23.33;47.39;100931.14;1791988;78;21009;-76
2021/08/09 09:40:07;;;;;;;2.85;1.22;;;;;;;23.59;47.38;100933.89;1801060;78;21753;-75
2021/08/09 09:42:35;;;;;;;4.28;1.07;;;;;;;24.06;47.30;100929.06;1766330;79;21478;-77
2021/08/09 09:45:23;;;;;;;3.35;1.37;;;;;;;24.51;47.14;100935.02;1764797;81;21004;-78
2021/08/09 09:48:10;;;;;;;6.37;1.43;;;;;;;24.75;46.45;100937.84;1785148;78;21064;-78
2021/08/09 09:50:41;;;;;;;2.30;1.17;;;;;;;24.66;45.91;100932.55;1786390;78;21422;-78
2021/08/09 09:53:21;;;;;;;5.67;1.37;;;;;;;24.37;45.63;100942.70;1796931;78;21696;-78
2021/08/09 09:55:50;;;;;;;3.67;1.00;;;;;;;24.47;45.70;100938.78;1783723;78;21045;-78
2021/08/09 09:58:17;;;;;;;4.05;1.07;;;;;;;24.59;45.58;100930.52;1793685;79;21022;-78
2021/08/09 10:00:43;;;;;;;3.55;1.22;;;;;;;24.36;45.12;100937.79;1793475;78;21573;-78
2021/08/09 10:03:12;;;;;;;1.65;1.10;;;;;;;24.08;45.05;100940.53;1811014;78;20993;-78
2021/08/09 10:05:42;;;;;;;3.05;1.35;;;;;;;23.93;45.03;100945.70;1805213;78;23076;-77
2021/08/09 10:08:18;;;;;;;3.30;0.95;;;;;;;23.89;45.10;100945.89;1805685;78;20982;-76
2021/08/09 10:10:52;;;;;;;1.62;0.88;;;;;;;23.92;45.18;100949.52;1817910;78;21005;-77
2021/08/09 10:13:21;;;;;;;3.42;1.17;;;;;;;23.75;44.92;100951.38;1765327;78;21006;-77
2021/08/09 10:15:55;;;;;;;1.37;0.90;;;;;;;23.67;44.82;100946.30;1807872;78;21042;-85
2021/08/09 10:18:26;;;;;;;3.52;1.07;;;;;;;23.77;44.93;100946.49;1774163;78;21685;-86
2021/08/09 10:20:54;;;;;;;3.72;1.70;;;;;;;23.83;44.92;100942.25;1768222;80;21388;-84
2021/08/09 10:23:41;;;;;;;4.08;1.37;;;;;;;23.94;44.86;100941.08;1765353;80;21026;-83
2021/08/09 10:26:13;;;;;;;4.55;1.30;;;;;;;24.04;44.94;100935.28;1762800;80;21013;-85
2021/08/09 10:28:57;;;;;;;3.47;1.45;;;;;;;24.20;45.01;100933.16;1761713;80;21082;-85
2021/08/09 10:31:26;;;;;;;3.33;1.15;;;;;;;24.40;45.00;100937.29;1764681;80;21753;-85
2021/08/09 10:33:53;;;;;;;5.95;2.30;;;;;;;24.40;44.72;100943.58;1792080;79;21440;-84
2021/08/09 10:36:21;;;;;;;3.47;1.30;;;;;;;24.25;44.53;100949.59;1791605;79;21352;-85
2021/08/09 10:38:50;;;;;;;3.12;0.98;;;;;;;24.21;44.61;100945.70;1791896;79;21485;-84
2021/08/09 10:41:28;;;;;;;4.10;1.10;;;;;;;24.09;44.53;100943.56;1785151;80;21038;-83
2021/08/09 10:44:11;;;;;;;3.75;1.07;;;;;;;24.06;44.54;100945.41;1799384;79;22454;-83
2021/08/09 10:46:44;;;;;;;6.40;1.30;;;;;;;24.02;44.58;100949.70;1792832;79;20978;-84
2021/08/09 10:49:31;;;;;;;2.00;1.00;;;;;;;23.96;44.53;100947.12;1797475;79;20984;-83
2021/08/09 10:52:04;;;;;;;5.22;1.50;;;;;;;24.07;44.63;100947.05;1782788;79;20979;-83
2021/08/09 10:54:33;;;;;;;2.92;0.95;;;;;;;24.25;44.73;100945.50;1800243;79;21459;-83
2021/08/09 10:57:01;;;;;;;2.30;1.10;;;;;;;24.32;44.70;100951.63;1797153;79;21747;-83
2021/08/09 10:59:49;;;;;;;2.15;1.32;;;;;;;24.41;44.60;100949.86;1796503;79;21037;-83
2021/08/09 11:02:35;;;;;;;2.55;1.35;;;;;;;24.42;44.55;100952.31;1796753;79;21030;-83
2021/08/09 11:05:16;;;;;;;5.75;2.05;;;;;;;24.38;44.53;100948.45;1794625;79;20990;-83
2021/08/09 11:07:42;;;;;;;3.42;1.30;;;;;;;24.53;44.47;100951.95;1796721;79;21009;-83
2021/08/09 11:10:09;;;;;;;4.12;1.40;;;;;;;24.38;44.25;100943.80;1797096;79;22035;-85
2021/08/09 11:13:01;;;;;;;2.85;1.12;;;;;;;24.28;44.13;100943.64;1784059;79;20975;-85
2021/08/09 11:15:28;;;;;;;4.67;1.02;;;;;;;24.24;44.04;100945.20;1772459;80;20984;-85
2021/08/09 11:17:57;;;;;;;5.72;1.40;;;;;;;24.19;43.82;100943.77;1757625;80;20994;-85
2021/08/09 11:20:34;;;;;;;6.03;1.52;;;;;;;24.13;43.54;100943.39;1788210;80;21035;-86
2021/08/09 11:23:11;;;;;;;2.60;1.15;;;;;;;24.13;43.33;100944.76;1785585;80;21778;-87
2021/08/09 11:25:42;;;;;;;4.08;1.60;;;;;;;24.17;43.23;100937.72;1779736;80;21449;-85
2021/08/09 11:28:17;;;;;;;5.47;1.50;;;;;;;24.29;43.15;100943.94;1768084;80;21030;-86
2021/08/09 11:30:55;;;;;;;3.02;1.07;;;;;;;24.29;43.06;100945.30;1782288;80;21030;-88